Pagrindinis puslapis
METAR-TAF:

METAR-TAF

Oro uostai :

Luangprabangas, Laosas

platuma: 19-53N, ilguma: 102-08E, Aukštis: 305 m

Dabartinis oras

Ataskaita buvo paskelbta 11 valandos ir 16 minutes, ne 12:00 UTC
Ramus vėjas
Temperatūra 31°C
Drėgmė 55%
Slėgis 1010 hPa
Matomumas 10 km arba daugiau
Išsisklaidę debesys ne aukštis 2000 ft
Su prošvaistėmis ne aukštis 6000 ft

METAR: VLLB 121200Z 00000KT 9999 SCT020 BKN060 31/21 Q1010 NOSIG

Laikas: 06:16 (23:16 UTC)

Prognozė

Ataskaita buvo paskelbta 6 valandos ir 16 minutes, ne 17:00 UTC
Prognozė galioja nuo 12 metu 18 UTC su 13 metu 18 UTC
Vėjas 2 kt iš Vakarų
Matomumas: 5000 m
Išsisklaidę debesys ne aukštis 1700 ft
Su prošvaistėmis ne aukštis 6000 ft
rūkana

TAF: VLLB 121700Z 1218/1318 27002KT 5000 BR SCT017 BKN060

Orai ataskaitas ir orų prognozės (METAR, TAF).

turimą stotys yra geltonos ir raudonos taškus žemėlapyje.

Perkelti pele per norėdami pamatyti stoties vardą.

Tada spustelėkite, norėdami matyti oro stebėjimo ir prognozės.

Norėdami pakeisti žemėlapį: spustelėkite ant žalios mygtukų su juodo kryžiaus žemyn,; žalią mygtuką su brūkšneliu, jei norite nutolinti; arba žalių rodyklių gretimoms žemėlapius.


METAR-TAF: